sensor_id;sensor_type;location;lat;lon;timestamp;pressure;altitude;pressure_sealevel;temperature;humidity
60061;BME280;45933;51.336;12.612;2024-02-28T00:01:25;100098.41;;;6.96;66.07
60061;BME280;45933;51.336;12.612;2024-02-28T00:03:51;100097.53;;;6.95;66.03
60061;BME280;45933;51.336;12.612;2024-02-28T00:06:17;100093.22;;;6.96;66.26
60061;BME280;45933;51.336;12.612;2024-02-28T00:08:44;100088.94;;;6.96;66.33
60061;BME280;45933;51.336;12.612;2024-02-28T00:11:09;100088.91;;;6.95;66.07
60061;BME280;45933;51.336;12.612;2024-02-28T00:13:34;100087.22;;;6.97;66.16
60061;BME280;45933;51.336;12.612;2024-02-28T00:15:59;100088.94;;;6.98;66.18
60061;BME280;45933;51.336;12.612;2024-02-28T00:18:25;100098.44;;;6.99;66.41
60061;BME280;45933;51.336;12.612;2024-02-28T00:20:50;100093.25;;;7.00;66.20
60061;BME280;45933;51.336;12.612;2024-02-28T00:23:15;100091.53;;;6.99;66.19
60061;BME280;45933;51.336;12.612;2024-02-28T00:25:40;100092.44;;;7.01;66.33
60061;BME280;45933;51.336;12.612;2024-02-28T00:28:06;100094.13;;;6.99;66.20
60061;BME280;45933;51.336;12.612;2024-02-28T00:30:31;100089.81;;;6.98;66.29
60061;BME280;45933;51.336;12.612;2024-02-28T00:32:57;100095.84;;;7.00;66.39
60061;BME280;45933;51.336;12.612;2024-02-28T00:35:23;100095.84;;;6.99;66.05
60061;BME280;45933;51.336;12.612;2024-02-28T00:37:48;100096.72;;;6.99;65.84
60061;BME280;45933;51.336;12.612;2024-02-28T00:40:13;100093.25;;;6.99;66.31
60061;BME280;45933;51.336;12.612;2024-02-28T00:42:38;100093.25;;;6.99;66.19
60061;BME280;45933;51.336;12.612;2024-02-28T00:45:04;100096.72;;;6.99;66.26
60061;BME280;45933;51.336;12.612;2024-02-28T00:47:29;100092.41;;;6.98;66.43
60061;BME280;45933;51.336;12.612;2024-02-28T00:49:55;100101.91;;;7.01;65.85
60061;BME280;45933;51.336;12.612;2024-02-28T00:52:20;100101.91;;;6.99;66.21
60061;BME280;45933;51.336;12.612;2024-02-28T00:54:45;100110.53;;;6.98;65.95
60061;BME280;45933;51.336;12.612;2024-02-28T00:57:10;100097.59;;;7.00;66.12
60061;BME280;45933;51.336;12.612;2024-02-28T00:59:36;100105.34;;;7.00;65.96
60061;BME280;45933;51.336;12.612;2024-02-28T01:02:01;100104.50;;;6.98;65.84
60061;BME280;45933;51.336;12.612;2024-02-28T01:04:28;100105.34;;;6.98;66.17
60061;BME280;45933;51.336;12.612;2024-02-28T01:06:53;100102.75;;;6.98;65.93
60061;BME280;45933;51.336;12.612;2024-02-28T01:09:18;100100.16;;;6.98;65.84
60061;BME280;45933;51.336;12.612;2024-02-28T01:11:44;100105.34;;;6.97;66.04
60061;BME280;45933;51.336;12.612;2024-02-28T01:14:09;100100.16;;;6.97;65.77
60061;BME280;45933;51.336;12.612;2024-02-28T01:16:34;100107.03;;;6.95;65.83
60061;BME280;45933;51.336;12.612;2024-02-28T01:18:59;100098.38;;;6.91;65.86
60061;BME280;45933;51.336;12.612;2024-02-28T01:21:25;100098.38;;;6.91;65.78
60061;BME280;45933;51.336;12.612;2024-02-28T01:23:51;100103.53;;;6.90;66.04
60061;BME280;45933;51.336;12.612;2024-02-28T01:26:16;100085.38;;;6.87;65.87
60061;BME280;45933;51.336;12.612;2024-02-28T01:28:42;100090.53;;;6.85;65.94
60061;BME280;45933;51.336;12.612;2024-02-28T01:31:08;100096.56;;;6.82;65.69
60061;BME280;45933;51.336;12.612;2024-02-28T01:33:33;100107.78;;;6.83;65.78
60061;BME280;45933;51.336;12.612;2024-02-28T01:35:58;100100.88;;;6.80;65.96
60061;BME280;45933;51.336;12.612;2024-02-28T01:38:24;100097.38;;;6.80;66.04
60061;BME280;45933;51.336;12.612;2024-02-28T01:40:49;100097.38;;;6.80;65.59
60061;BME280;45933;51.336;12.612;2024-02-28T01:43:14;100098.25;;;6.77;65.76
60061;BME280;45933;51.336;12.612;2024-02-28T01:45:39;100095.66;;;6.76;65.72
60061;BME280;45933;51.336;12.612;2024-02-28T01:48:09;100097.38;;;6.77;65.82
60061;BME280;45933;51.336;12.612;2024-02-28T01:50:35;100100.78;;;6.73;65.79
60061;BME280;45933;51.336;12.612;2024-02-28T01:53:02;100101.66;;;6.72;65.96
60061;BME280;45933;51.336;12.612;2024-02-28T01:55:29;100095.59;;;6.71;65.94
60061;BME280;45933;51.336;12.612;2024-02-28T01:57:55;100102.50;;;6.72;65.88
60061;BME280;45933;51.336;12.612;2024-02-28T02:00:21;100104.25;;;6.73;65.76
60061;BME280;45933;51.336;12.612;2024-02-28T02:02:47;100105.09;;;6.72;65.99
60061;BME280;45933;51.336;12.612;2024-02-28T02:05:12;100105.97;;;6.73;65.76
60061;BME280;45933;51.336;12.612;2024-02-28T02:07:37;100102.50;;;6.74;66.13
60061;BME280;45933;51.336;12.612;2024-02-28T02:10:04;100103.38;;;6.71;66.01
60061;BME280;45933;51.336;12.612;2024-02-28T02:12:33;100102.50;;;6.71;65.75
60061;BME280;45933;51.336;12.612;2024-02-28T02:14:58;100104.22;;;6.72;65.89
60061;BME280;45933;51.336;12.612;2024-02-28T02:17:23;100103.38;;;6.71;66.10
60061;BME280;45933;51.336;12.612;2024-02-28T02:19:49;100105.97;;;6.71;65.63
60061;BME280;45933;51.336;12.612;2024-02-28T02:22:14;100102.47;;;6.69;66.12
60061;BME280;45933;51.336;12.612;2024-02-28T02:24:41;100099.88;;;6.68;65.71
60061;BME280;45933;51.336;12.612;2024-02-28T02:27:06;100097.28;;;6.66;65.60
60061;BME280;45933;51.336;12.612;2024-02-28T02:29:32;100102.44;;;6.66;66.15
60061;BME280;45933;51.336;12.612;2024-02-28T02:31:57;100105.03;;;6.66;66.01
60061;BME280;45933;51.336;12.612;2024-02-28T02:34:22;100099.84;;;6.66;65.79
60061;BME280;45933;51.336;12.612;2024-02-28T02:36:47;100097.25;;;6.65;65.91
60061;BME280;45933;51.336;12.612;2024-02-28T02:39:13;100098.94;;;6.64;66.40
60061;BME280;45933;51.336;12.612;2024-02-28T02:41:38;100096.38;;;6.64;66.16
60061;BME280;45933;51.336;12.612;2024-02-28T02:44:03;100098.94;;;6.64;66.35
60061;BME280;45933;51.336;12.612;2024-02-28T02:46:29;100102.44;;;6.65;66.10
60061;BME280;45933;51.336;12.612;2024-02-28T02:48:55;100106.72;;;6.64;65.99
60061;BME280;45933;51.336;12.612;2024-02-28T02:51:20;100109.31;;;6.63;66.05
60061;BME280;45933;51.336;12.612;2024-02-28T02:53:45;100109.31;;;6.64;66.33
60061;BME280;45933;51.336;12.612;2024-02-28T02:56:11;100108.44;;;6.64;66.46
60061;BME280;45933;51.336;12.612;2024-02-28T02:58:36;100111.09;;;6.65;66.29
60061;BME280;45933;51.336;12.612;2024-02-28T03:01:01;100114.50;;;6.64;65.99
60061;BME280;45933;51.336;12.612;2024-02-28T03:03:26;100107.63;;;6.65;66.29
60061;BME280;45933;51.336;12.612;2024-02-28T03:05:52;100102.41;;;6.63;65.90
60061;BME280;45933;51.336;12.612;2024-02-28T03:08:17;100105.84;;;6.64;66.12
60061;BME280;45933;51.336;12.612;2024-02-28T03:10:42;100115.34;;;6.63;65.88
60061;BME280;45933;51.336;12.612;2024-02-28T03:13:07;100114.50;;;6.63;66.22
60061;BME280;45933;51.336;12.612;2024-02-28T03:15:33;100115.34;;;6.63;65.64
60061;BME280;45933;51.336;12.612;2024-02-28T03:17:59;100117.06;;;6.61;65.85
60061;BME280;45933;51.336;12.612;2024-02-28T03:20:24;100118.78;;;6.59;65.78
60061;BME280;45933;51.336;12.612;2024-02-28T03:22:49;100124.84;;;6.60;65.88
60061;BME280;45933;51.336;12.612;2024-02-28T03:25:14;100123.06;;;6.57;65.71
60061;BME280;45933;51.336;12.612;2024-02-28T03:27:40;100129.09;;;6.58;65.83
60061;BME280;45933;51.336;12.612;2024-02-28T03:30:05;100134.28;;;6.56;65.88
60061;BME280;45933;51.336;12.612;2024-02-28T03:32:31;100131.69;;;6.54;65.92
60061;BME280;45933;51.336;12.612;2024-02-28T03:34:56;100138.59;;;6.54;65.61
60061;BME280;45933;51.336;12.612;2024-02-28T03:37:22;100142.84;;;6.50;65.88
60061;BME280;45933;51.336;12.612;2024-02-28T03:39:47;100141.13;;;6.49;65.64
60061;BME280;45933;51.336;12.612;2024-02-28T03:42:12;100144.53;;;6.48;66.12
60061;BME280;45933;51.336;12.612;2024-02-28T03:44:37;100153.16;;;6.47;65.92
60061;BME280;45933;51.336;12.612;2024-02-28T03:47:03;100158.34;;;6.47;65.80
60061;BME280;45933;51.336;12.612;2024-02-28T03:49:28;100164.38;;;6.46;66.30
60061;BME280;45933;51.336;12.612;2024-02-28T03:51:53;100161.78;;;6.45;66.07
60061;BME280;45933;51.336;12.612;2024-02-28T03:54:19;100160.00;;;6.42;65.52
60061;BME280;45933;51.336;12.612;2024-02-28T03:56:44;100165.19;;;6.42;65.55
60061;BME280;45933;51.336;12.612;2024-02-28T03:59:09;100169.50;;;6.42;65.50
60061;BME280;45933;51.336;12.612;2024-02-28T04:01:35;100172.06;;;6.40;65.33
60061;BME280;45933;51.336;12.612;2024-02-28T04:04:00;100175.53;;;6.41;65.07
60061;BME280;45933;51.336;12.612;2024-02-28T04:06:25;100172.94;;;6.39;64.95
60061;BME280;45933;51.336;12.612;2024-02-28T04:08:50;100169.47;;;6.39;64.87
60061;BME280;45933;51.336;12.612;2024-02-28T04:11:15;100175.44;;;6.35;64.64
60061;BME280;45933;51.336;12.612;2024-02-28T04:13:41;100184.06;;;6.34;65.05
60061;BME280;45933;51.336;12.612;2024-02-28T04:16:08;100184.06;;;6.34;65.30
60061;BME280;45933;51.336;12.612;2024-02-28T04:18:33;100188.31;;;6.28;65.01
60061;BME280;45933;51.336;12.612;2024-02-28T04:20:58;100194.34;;;6.27;65.04
60061;BME280;45933;51.336;12.612;2024-02-28T04:23:24;100193.44;;;6.27;65.28
60061;BME280;45933;51.336;12.612;2024-02-28T04:25:49;100190.84;;;6.25;65.30
60061;BME280;45933;51.336;12.612;2024-02-28T04:28:14;100191.72;;;6.24;65.24
60061;BME280;45933;51.336;12.612;2024-02-28T04:30:40;100203.78;;;6.22;65.54
60061;BME280;45933;51.336;12.612;2024-02-28T04:33:05;100211.56;;;6.24;65.40
60061;BME280;45933;51.336;12.612;2024-02-28T04:35:30;100215.00;;;6.23;65.63
60061;BME280;45933;51.336;12.612;2024-02-28T04:37:55;100219.31;;;6.24;65.64
60061;BME280;45933;51.336;12.612;2024-02-28T04:40:21;100215.00;;;6.24;65.55
60061;BME280;45933;51.336;12.612;2024-02-28T04:42:46;100220.19;;;6.26;65.72
60061;BME280;45933;51.336;12.612;2024-02-28T04:45:12;100229.69;;;6.27;65.40
60061;BME280;45933;51.336;12.612;2024-02-28T04:47:38;100227.09;;;6.25;65.30
60061;BME280;45933;51.336;12.612;2024-02-28T04:50:04;100234.88;;;6.27;65.35
60061;BME280;45933;51.336;12.612;2024-02-28T04:52:31;100233.13;;;6.26;65.30
60061;BME280;45933;51.336;12.612;2024-02-28T04:54:56;100230.53;;;6.24;64.85
60061;BME280;45933;51.336;12.612;2024-02-28T04:57:22;100231.41;;;6.23;64.94
60061;BME280;45933;51.336;12.612;2024-02-28T04:59:47;100227.09;;;6.24;65.35
60061;BME280;45933;51.336;12.612;2024-02-28T05:02:12;100234.84;;;6.24;65.48
60061;BME280;45933;51.336;12.612;2024-02-28T05:04:38;100227.09;;;6.24;65.20
60061;BME280;45933;51.336;12.612;2024-02-28T05:07:03;100232.25;;;6.24;65.05
60061;BME280;45933;51.336;12.612;2024-02-28T05:09:28;100227.94;;;6.24;64.89
60061;BME280;45933;51.336;12.612;2024-02-28T05:11:54;100223.63;;;6.23;65.16
60061;BME280;45933;51.336;12.612;2024-02-28T05:14:19;100230.47;;;6.21;64.92
60061;BME280;45933;51.336;12.612;2024-02-28T05:16:44;100237.44;;;6.22;65.04
60061;BME280;45933;51.336;12.612;2024-02-28T05:19:11;100240.81;;;6.20;64.93
60061;BME280;45933;51.336;12.612;2024-02-28T05:21:40;100241.69;;;6.22;64.64
60061;BME280;45933;51.336;12.612;2024-02-28T05:24:09;100238.19;;;6.17;64.81
60061;BME280;45933;51.336;12.612;2024-02-28T05:26:35;100240.75;;;6.15;64.63
60061;BME280;45933;51.336;12.612;2024-02-28T05:29:02;100250.22;;;6.12;64.68
60061;BME280;45933;51.336;12.612;2024-02-28T05:31:28;100255.31;;;6.09;64.91
60061;BME280;45933;51.336;12.612;2024-02-28T05:33:56;100258.72;;;6.06;64.74
60061;BME280;45933;51.336;12.612;2024-02-28T05:36:22;100260.44;;;6.04;64.80
60061;BME280;45933;51.336;12.612;2024-02-28T05:38:48;100276.81;;;6.03;65.29
60061;BME280;45933;51.336;12.612;2024-02-28T05:41:13;100276.78;;;6.01;64.68
60061;BME280;45933;51.336;12.612;2024-02-28T05:43:40;100281.06;;;6.01;65.11
60061;BME280;45933;51.336;12.612;2024-02-28T05:46:05;100281.06;;;5.99;64.95
60061;BME280;45933;51.336;12.612;2024-02-28T05:48:31;100282.78;;;5.99;64.23
60061;BME280;45933;51.336;12.612;2024-02-28T05:50:56;100283.59;;;5.96;64.74
60061;BME280;45933;51.336;12.612;2024-02-28T05:53:21;100288.75;;;5.95;64.95
60061;BME280;45933;51.336;12.612;2024-02-28T05:55:46;100285.28;;;5.94;65.16
60061;BME280;45933;51.336;12.612;2024-02-28T05:58:13;100287.91;;;5.96;65.17
60061;BME280;45933;51.336;12.612;2024-02-28T06:00:38;100291.31;;;5.93;65.15
60061;BME280;45933;51.336;12.612;2024-02-28T06:03:04;100298.22;;;5.94;64.81
60061;BME280;45933;51.336;12.612;2024-02-28T06:05:29;100292.16;;;5.92;64.93
60061;BME280;45933;51.336;12.612;2024-02-28T06:07:54;100297.28;;;5.91;64.47
60061;BME280;45933;51.336;12.612;2024-02-28T06:10:20;100302.47;;;5.91;64.79
60061;BME280;45933;51.336;12.612;2024-02-28T06:12:46;100306.69;;;5.87;64.93
60061;BME280;45933;51.336;12.612;2024-02-28T06:15:11;100300.63;;;5.85;64.80
60061;BME280;45933;51.336;12.612;2024-02-28T06:17:37;100301.47;;;5.84;64.71
60061;BME280;45933;51.336;12.612;2024-02-28T06:20:02;100306.63;;;5.83;64.69
60061;BME280;45933;51.336;12.612;2024-02-28T06:22:27;100304.03;;;5.83;65.08
60061;BME280;45933;51.336;12.612;2024-02-28T06:24:53;100313.50;;;5.82;64.77
60061;BME280;45933;51.336;12.612;2024-02-28T06:27:18;100316.09;;;5.82;65.00
60061;BME280;45933;51.336;12.612;2024-02-28T06:29:43;100323.88;;;5.84;64.78
60061;BME280;45933;51.336;12.612;2024-02-28T06:32:08;100323.00;;;5.83;64.75
60061;BME280;45933;51.336;12.612;2024-02-28T06:34:34;100329.06;;;5.85;64.56
60061;BME280;45933;51.336;12.612;2024-02-28T06:36:59;100333.34;;;5.83;64.03
60061;BME280;45933;51.336;12.612;2024-02-28T06:39:24;100328.16;;;5.82;64.50
60061;BME280;45933;51.336;12.612;2024-02-28T06:41:49;100326.38;;;5.79;64.25
60061;BME280;45933;51.336;12.612;2024-02-28T06:44:18;100333.25;;;5.77;64.41
60061;BME280;45933;51.336;12.612;2024-02-28T06:46:44;100329.78;;;5.75;64.54
60061;BME280;45933;51.336;12.612;2024-02-28T06:49:09;100347.00;;;5.74;64.10
60061;BME280;45933;51.336;12.612;2024-02-28T06:51:34;100353.00;;;5.72;64.17
60061;BME280;45933;51.336;12.612;2024-02-28T06:53:59;100361.53;;;5.68;64.07
60061;BME280;45933;51.336;12.612;2024-02-28T06:56:25;100352.88;;;5.66;63.90
60061;BME280;45933;51.336;12.612;2024-02-28T06:58:50;100356.28;;;5.63;64.02
60061;BME280;45933;51.336;12.612;2024-02-28T07:01:15;100361.41;;;5.60;64.17
60061;BME280;45933;51.336;12.612;2024-02-28T07:03:40;100360.56;;;5.63;64.24
60061;BME280;45933;51.336;12.612;2024-02-28T07:06:06;100354.53;;;5.62;64.08
60061;BME280;45933;51.336;12.612;2024-02-28T07:08:32;100356.28;;;5.63;64.12
60061;BME280;45933;51.336;12.612;2024-02-28T07:10:57;100364.09;;;5.65;63.96
60061;BME280;45933;51.336;12.612;2024-02-28T07:13:26;100366.66;;;5.65;63.87
60061;BME280;45933;51.336;12.612;2024-02-28T07:15:52;100364.00;;;5.62;63.61
60061;BME280;45933;51.336;12.612;2024-02-28T07:18:19;100366.59;;;5.62;63.87
60061;BME280;45933;51.336;12.612;2024-02-28T07:20:45;100362.25;;;5.59;63.72
60061;BME280;45933;51.336;12.612;2024-02-28T07:23:10;100363.91;;;5.57;63.54
60061;BME280;45933;51.336;12.612;2024-02-28T07:25:35;100368.22;;;5.57;63.38
60061;BME280;45933;51.336;12.612;2024-02-28T07:28:00;100361.25;;;5.53;63.08
60061;BME280;45933;51.336;12.612;2024-02-28T07:30:26;100373.31;;;5.54;63.45
60061;BME280;45933;51.336;12.612;2024-02-28T07:32:51;100381.13;;;5.55;63.43
60061;BME280;45933;51.336;12.612;2024-02-28T07:35:16;100382.00;;;5.56;63.33
60061;BME280;45933;51.336;12.612;2024-02-28T07:37:42;100386.34;;;5.58;63.21
60061;BME280;45933;51.336;12.612;2024-02-28T07:40:07;100384.69;;;5.60;63.41
60061;BME280;45933;51.336;12.612;2024-02-28T07:42:33;100385.56;;;5.62;63.03
60061;BME280;45933;51.336;12.612;2024-02-28T07:45:00;100392.53;;;5.65;63.32
60061;BME280;45933;51.336;12.612;2024-02-28T07:47:25;100389.06;;;5.64;62.59
60061;BME280;45933;51.336;12.612;2024-02-28T07:49:51;100381.34;;;5.66;62.42
60061;BME280;45933;51.336;12.612;2024-02-28T07:52:17;100382.19;;;5.65;62.18
60061;BME280;45933;51.336;12.612;2024-02-28T07:54:42;100379.53;;;5.63;62.24
60061;BME280;45933;51.336;12.612;2024-02-28T07:57:11;100381.16;;;5.58;62.03
60061;BME280;45933;51.336;12.612;2024-02-28T07:59:40;100382.13;;;5.62;62.08
60061;BME280;45933;51.336;12.612;2024-02-28T08:02:08;100383.84;;;5.61;62.33
60061;BME280;45933;51.336;12.612;2024-02-28T08:04:33;100382.94;;;5.59;61.53
60061;BME280;45933;51.336;12.612;2024-02-28T08:06:59;100380.38;;;5.61;61.91
60061;BME280;45933;51.336;12.612;2024-02-28T08:09:24;100381.25;;;5.61;62.02
60061;BME280;45933;51.336;12.612;2024-02-28T08:11:49;100375.19;;;5.61;61.74
60061;BME280;45933;51.336;12.612;2024-02-28T08:14:15;100382.13;;;5.62;61.69
60061;BME280;45933;51.336;12.612;2024-02-28T08:16:40;100381.31;;;5.64;61.98
60061;BME280;45933;51.336;12.612;2024-02-28T08:19:05;100383.91;;;5.64;61.44
60061;BME280;45933;51.336;12.612;2024-02-28T08:21:31;100375.25;;;5.64;61.45
60061;BME280;45933;51.336;12.612;2024-02-28T08:23:56;100375.28;;;5.65;61.15
60061;BME280;45933;51.336;12.612;2024-02-28T08:26:23;100377.06;;;5.68;61.34
60061;BME280;45933;51.336;12.612;2024-02-28T08:28:48;100395.19;;;5.69;61.47
60061;BME280;45933;51.336;12.612;2024-02-28T08:31:14;100386.63;;;5.72;60.78
60061;BME280;45933;51.336;12.612;2024-02-28T08:33:40;100389.28;;;5.76;61.15
60061;BME280;45933;51.336;12.612;2024-02-28T08:36:06;100382.34;;;5.74;60.40
60061;BME280;45933;51.336;12.612;2024-02-28T08:38:31;100395.34;;;5.78;60.98
60061;BME280;45933;51.336;12.612;2024-02-28T08:40:56;100387.66;;;5.82;61.15
60061;BME280;45933;51.336;12.612;2024-02-28T08:43:22;100391.03;;;5.77;59.88
60061;BME280;45933;51.336;12.612;2024-02-28T08:45:47;100386.03;;;5.87;60.68
60061;BME280;45933;51.336;12.612;2024-02-28T08:48:12;100389.50;;;5.89;60.69
60061;BME280;45933;51.336;12.612;2024-02-28T08:50:38;100392.25;;;5.95;61.08
60061;BME280;45933;51.336;12.612;2024-02-28T08:53:04;100389.72;;;5.98;60.73
60061;BME280;45933;51.336;12.612;2024-02-28T08:55:30;100401.81;;;6.00;59.88
60061;BME280;45933;51.336;12.612;2024-02-28T08:57:55;100408.81;;;6.05;60.08
60061;BME280;45933;51.336;12.612;2024-02-28T09:00:21;100410.59;;;6.07;60.20
60061;BME280;45933;51.336;12.612;2024-02-28T09:02:46;100412.38;;;6.11;59.72
60061;BME280;45933;51.336;12.612;2024-02-28T09:05:12;100406.41;;;6.15;59.82
60061;BME280;45933;51.336;12.612;2024-02-28T09:07:37;100415.97;;;6.18;59.50
60061;BME280;45933;51.336;12.612;2024-02-28T09:10:06;100421.25;;;6.25;60.04
60061;BME280;45933;51.336;12.612;2024-02-28T09:12:31;100418.66;;;6.25;60.17
60061;BME280;45933;51.336;12.612;2024-02-28T09:14:57;100424.78;;;6.29;59.57
60061;BME280;45933;51.336;12.612;2024-02-28T09:17:23;100420.50;;;6.33;59.57
60061;BME280;45933;51.336;12.612;2024-02-28T09:19:49;100425.72;;;6.34;59.76
60061;BME280;45933;51.336;12.612;2024-02-28T09:22:14;100428.41;;;6.39;58.89
60061;BME280;45933;51.336;12.612;2024-02-28T09:24:41;100423.22;;;6.39;57.71
60061;BME280;45933;51.336;12.612;2024-02-28T09:27:07;100426.78;;;6.45;58.17
60061;BME280;45933;51.336;12.612;2024-02-28T09:29:32;100421.69;;;6.51;58.75
60061;BME280;45933;51.336;12.612;2024-02-28T09:31:58;100430.47;;;6.60;57.95
60061;BME280;45933;51.336;12.612;2024-02-28T09:34:24;100424.53;;;6.67;58.53
60061;BME280;45933;51.336;12.612;2024-02-28T09:36:49;100424.63;;;6.73;58.07
60061;BME280;45933;51.336;12.612;2024-02-28T09:39:15;100423.91;;;6.81;58.46
60061;BME280;45933;51.336;12.612;2024-02-28T09:41:43;100427.47;;;6.90;57.78
60061;BME280;45933;51.336;12.612;2024-02-28T09:44:08;100417.16;;;6.94;57.60
60061;BME280;45933;51.336;12.612;2024-02-28T09:46:34;100425.03;;;7.00;57.72
60061;BME280;45933;51.336;12.612;2024-02-28T09:49:04;100428.69;;;7.13;57.71
60061;BME280;45933;51.336;12.612;2024-02-28T09:51:33;100418.41;;;7.21;57.54
60061;BME280;45933;51.336;12.612;2024-02-28T09:54:01;100416.78;;;7.30;57.63
60061;BME280;45933;51.336;12.612;2024-02-28T09:56:27;100424.72;;;7.41;57.19
60061;BME280;45933;51.336;12.612;2024-02-28T09:58:54;100417.91;;;7.51;57.03
60061;BME280;45933;51.336;12.612;2024-02-28T10:01:22;100413.78;;;7.65;56.20
60061;BME280;45933;51.336;12.612;2024-02-28T10:03:48;100418.34;;;7.89;58.12
60061;BME280;45933;51.336;12.612;2024-02-28T10:06:15;100410.72;;;8.06;55.56
60061;BME280;45933;51.336;12.612;2024-02-28T10:08:41;100417.03;;;8.28;55.95
60061;BME280;45933;51.336;12.612;2024-02-28T10:11:06;100420.72;;;8.53;55.75
60061;BME280;45933;51.336;12.612;2024-02-28T10:13:31;100420.97;;;8.86;55.35
60061;BME280;45933;51.336;12.612;2024-02-28T10:15:57;100430.75;;;9.30;56.58
60061;BME280;45933;51.336;12.612;2024-02-28T10:18:22;100428.38;;;9.85;57.98
60061;BME280;45933;51.336;12.612;2024-02-28T10:20:47;100421.56;;;10.42;55.00
60061;BME280;45933;51.336;12.612;2024-02-28T10:23:13;100423.22;;;11.02;52.43
60061;BME280;45933;51.336;12.612;2024-02-28T10:25:46;100423.00;;;11.72;53.34
60061;BME280;45933;51.336;12.612;2024-02-28T10:28:13;100411.44;;;12.20;51.07
60061;BME280;45933;51.336;12.612;2024-02-28T10:30:40;100423.97;;;12.85;50.13
60061;BME280;45933;51.336;12.612;2024-02-28T10:33:10;100424.22;;;13.46;50.41
60061;BME280;45933;51.336;12.612;2024-02-28T10:35:36;100423.41;;;14.07;50.75
60061;BME280;45933;51.336;12.612;2024-02-28T10:38:02;100429.56;;;14.63;48.93
60061;BME280;45933;51.336;12.612;2024-02-28T10:40:27;100437.44;;;15.13;47.89
60061;BME280;45933;51.336;12.612;2024-02-28T10:42:53;100427.75;;;15.60;45.59
60061;BME280;45933;51.336;12.612;2024-02-28T10:45:20;100426.84;;;16.04;44.09
60061;BME280;45933;51.336;12.612;2024-02-28T10:47:46;100422.25;;;16.51;44.65
60061;BME280;45933;51.336;12.612;2024-02-28T10:50:13;100417.16;;;16.79;42.04
60061;BME280;45933;51.336;12.612;2024-02-28T10:52:43;100423.41;;;17.09;39.81
60061;BME280;45933;51.336;12.612;2024-02-28T10:55:09;100424.31;;;17.39;39.87
60061;BME280;45933;51.336;12.612;2024-02-28T10:57:36;100427.56;;;17.49;37.45
60061;BME280;45933;51.336;12.612;2024-02-28T11:00:02;100426.78;;;17.76;38.79
60061;BME280;45933;51.336;12.612;2024-02-28T11:02:30;100427.97;;;17.96;39.21
60061;BME280;45933;51.336;12.612;2024-02-28T11:04:56;100426.53;;;18.14;38.30
60061;BME280;45933;51.336;12.612;2024-02-28T11:07:24;100428.13;;;18.19;36.67
60061;BME280;45933;51.336;12.612;2024-02-28T11:09:54;100431.25;;;18.32;36.33
60061;BME280;45933;51.336;12.612;2024-02-28T11:12:29;100426.84;;;18.59;39.71
60061;BME280;45933;51.336;12.612;2024-02-28T11:14:58;100432.44;;;18.76;36.04
60061;BME280;45933;51.336;12.612;2024-02-28T11:17:28;100435.13;;;19.01;37.25
60061;BME280;45933;51.336;12.612;2024-02-28T11:19:54;100433.78;;;19.15;34.72
60061;BME280;45933;51.336;12.612;2024-02-28T11:22:20;100428.91;;;19.27;36.44
60061;BME280;45933;51.336;12.612;2024-02-28T11:24:48;100425.31;;;19.53;35.15
60061;BME280;45933;51.336;12.612;2024-02-28T11:27:15;100423.44;;;19.57;33.88
60061;BME280;45933;51.336;12.612;2024-02-28T11:29:41;100418.22;;;19.79;34.34
60061;BME280;45933;51.336;12.612;2024-02-28T11:32:07;100419.59;;;19.89;34.09
60061;BME280;45933;51.336;12.612;2024-02-28T11:34:34;100419.19;;;20.00;33.92
60061;BME280;45933;51.336;12.612;2024-02-28T11:36:59;100414.81;;;19.99;32.71
60061;BME280;45933;51.336;12.612;2024-02-28T11:39:24;100429.63;;;20.03;32.63
60061;BME280;45933;51.336;12.612;2024-02-28T11:41:51;100425.69;;;19.91;31.59
60061;BME280;45933;51.336;12.612;2024-02-28T11:44:17;100425.34;;;20.00;32.04
60061;BME280;45933;51.336;12.612;2024-02-28T11:46:47;100420.78;;;20.04;31.42
60061;BME280;45933;51.336;12.612;2024-02-28T11:49:13;100432.72;;;20.14;32.51
60061;BME280;45933;51.336;12.612;2024-02-28T11:51:42;100434.91;;;20.26;31.71
60061;BME280;45933;51.336;12.612;2024-02-28T11:54:08;100432.09;;;20.53;31.92
60061;BME280;45933;51.336;12.612;2024-02-28T11:56:36;100425.22;;;20.69;31.54
60061;BME280;45933;51.336;12.612;2024-02-28T11:59:02;100425.50;;;20.83;30.75
60061;BME280;45933;51.336;12.612;2024-02-28T12:01:34;100427.25;;;21.05;30.69
60061;BME280;45933;51.336;12.612;2024-02-28T12:03:59;100429.22;;;21.20;30.35
60061;BME280;45933;51.336;12.612;2024-02-28T12:06:24;100423.41;;;21.32;30.17
60061;BME280;45933;51.336;12.612;2024-02-28T12:08:50;100427.84;;;21.32;29.14
60061;BME280;45933;51.336;12.612;2024-02-28T12:11:15;100423.56;;;21.48;29.85
60061;BME280;45933;51.336;12.612;2024-02-28T12:13:40;100422.16;;;21.41;29.12
60061;BME280;45933;51.336;12.612;2024-02-28T12:16:07;100421.56;;;21.53;27.37
60061;BME280;45933;51.336;12.612;2024-02-28T12:18:33;100420.06;;;21.48;27.90
60061;BME280;45933;51.336;12.612;2024-02-28T12:20:59;100422.22;;;21.58;28.18
60061;BME280;45933;51.336;12.612;2024-02-28T12:23:24;100419.53;;;21.79;28.36
60061;BME280;45933;51.336;12.612;2024-02-28T12:25:50;100421.69;;;21.89;28.32
60061;BME280;45933;51.336;12.612;2024-02-28T12:28:15;100418.34;;;22.03;28.79
60061;BME280;45933;51.336;12.612;2024-02-28T12:30:41;100412.81;;;22.08;27.67
60061;BME280;45933;51.336;12.612;2024-02-28T12:35:32;100412.56;;;22.14;27.36
60061;BME280;45933;51.336;12.612;2024-02-28T12:37:58;100409.56;;;22.22;27.85
60061;BME280;45933;51.336;12.612;2024-02-28T12:40:23;100409.56;;;22.22;27.67
60061;BME280;45933;51.336;12.612;2024-02-28T12:42:50;100402.75;;;22.16;26.35